Terminal Aerodrome Forecast
Issued by NWS North Platte, NE

Home | Current Version | Previous Version | Graphics & Text | Print | Product List | Glossary On
Versions: 1 2 3 4 5 6 7 8 9 10 11 12 13 14 15 16 17
663
FTUS43 KLBF 271124
TAFVTN
TAF
KVTN 271124Z 2712/2812 VRB04KT P6SM SCT100
     FM271600 07008KT P6SM OVC070
     FM280200 09008KT P6SM VCSH BKN060=

USA.gov is the U.S. government's official web portal to all federal, state and local government web resources and services.